sensor_id;sensor_type;location;lat;lon;timestamp;P1;durP1;ratioP1;P2;durP2;ratioP2
14040;SDS011;7095;51.388;6.196;2023-03-30T00:01:10;4.40;;;2.20;;
14040;SDS011;7095;51.388;6.196;2023-03-30T00:03:41;10.00;;;2.80;;
14040;SDS011;7095;51.388;6.196;2023-03-30T00:06:11;5.97;;;2.23;;
14040;SDS011;7095;51.388;6.196;2023-03-30T00:08:40;8.20;;;2.77;;
14040;SDS011;7095;51.388;6.196;2023-03-30T00:11:09;4.30;;;2.03;;
14040;SDS011;7095;51.388;6.196;2023-03-30T00:13:42;3.20;;;1.80;;
14040;SDS011;7095;51.388;6.196;2023-03-30T00:16:11;9.00;;;2.23;;
14040;SDS011;7095;51.388;6.196;2023-03-30T00:18:40;6.33;;;2.40;;
14040;SDS011;7095;51.388;6.196;2023-03-30T00:21:10;4.97;;;2.40;;
14040;SDS011;7095;51.388;6.196;2023-03-30T00:23:39;7.10;;;2.80;;
14040;SDS011;7095;51.388;6.196;2023-03-30T00:26:07;7.90;;;2.80;;
14040;SDS011;7095;51.388;6.196;2023-03-30T00:28:36;8.87;;;2.60;;
14040;SDS011;7095;51.388;6.196;2023-03-30T00:31:06;12.43;;;2.20;;
14040;SDS011;7095;51.388;6.196;2023-03-30T00:33:36;6.17;;;2.10;;
14040;SDS011;7095;51.388;6.196;2023-03-30T00:36:13;9.53;;;2.50;;
14040;SDS011;7095;51.388;6.196;2023-03-30T00:38:42;4.87;;;2.17;;
14040;SDS011;7095;51.388;6.196;2023-03-30T00:41:11;4.13;;;2.20;;
14040;SDS011;7095;51.388;6.196;2023-03-30T00:43:56;8.03;;;2.50;;
14040;SDS011;7095;51.388;6.196;2023-03-30T00:46:28;8.23;;;3.03;;
14040;SDS011;7095;51.388;6.196;2023-03-30T00:48:58;9.33;;;2.57;;
14040;SDS011;7095;51.388;6.196;2023-03-30T00:51:31;5.10;;;2.30;;
14040;SDS011;7095;51.388;6.196;2023-03-30T00:54:04;5.40;;;2.10;;
14040;SDS011;7095;51.388;6.196;2023-03-30T00:56:36;4.63;;;2.00;;
14040;SDS011;7095;51.388;6.196;2023-03-30T00:59:04;8.53;;;2.27;;
14040;SDS011;7095;51.388;6.196;2023-03-30T01:01:34;7.20;;;2.50;;
14040;SDS011;7095;51.388;6.196;2023-03-30T01:04:05;4.77;;;1.80;;
14040;SDS011;7095;51.388;6.196;2023-03-30T01:06:35;6.27;;;2.40;;
14040;SDS011;7095;51.388;6.196;2023-03-30T01:09:06;8.63;;;2.77;;
14040;SDS011;7095;51.388;6.196;2023-03-30T01:11:35;4.97;;;2.17;;
14040;SDS011;7095;51.388;6.196;2023-03-30T01:14:04;6.13;;;2.17;;
14040;SDS011;7095;51.388;6.196;2023-03-30T01:16:38;6.93;;;2.30;;
14040;SDS011;7095;51.388;6.196;2023-03-30T01:19:17;7.87;;;2.33;;
14040;SDS011;7095;51.388;6.196;2023-03-30T01:22:15;7.00;;;2.13;;
14040;SDS011;7095;51.388;6.196;2023-03-30T01:31:04;5.73;;;2.00;;
14040;SDS011;7095;51.388;6.196;2023-03-30T01:34:03;7.63;;;3.03;;
14040;SDS011;7095;51.388;6.196;2023-03-30T01:37:03;6.67;;;2.20;;
14040;SDS011;7095;51.388;6.196;2023-03-30T01:39:48;5.97;;;2.23;;
14040;SDS011;7095;51.388;6.196;2023-03-30T01:42:23;5.70;;;2.13;;
14040;SDS011;7095;51.388;6.196;2023-03-30T01:45:05;6.30;;;2.30;;
14040;SDS011;7095;51.388;6.196;2023-03-30T01:47:40;4.17;;;2.03;;
14040;SDS011;7095;51.388;6.196;2023-03-30T01:50:18;5.83;;;2.07;;
14040;SDS011;7095;51.388;6.196;2023-03-30T01:52:53;8.03;;;2.30;;
14040;SDS011;7095;51.388;6.196;2023-03-30T01:55:30;8.77;;;2.07;;
14040;SDS011;7095;51.388;6.196;2023-03-30T01:58:02;4.90;;;2.63;;
14040;SDS011;7095;51.388;6.196;2023-03-30T02:00:38;5.80;;;2.30;;
14040;SDS011;7095;51.388;6.196;2023-03-30T02:03:10;5.93;;;2.43;;
14040;SDS011;7095;51.388;6.196;2023-03-30T02:05:43;8.73;;;2.93;;
14040;SDS011;7095;51.388;6.196;2023-03-30T02:08:18;7.47;;;2.20;;
14040;SDS011;7095;51.388;6.196;2023-03-30T02:10:52;7.60;;;2.73;;
14040;SDS011;7095;51.388;6.196;2023-03-30T02:13:23;6.27;;;2.63;;
14040;SDS011;7095;51.388;6.196;2023-03-30T02:15:54;10.10;;;2.60;;
14040;SDS011;7095;51.388;6.196;2023-03-30T02:18:26;4.50;;;2.03;;
14040;SDS011;7095;51.388;6.196;2023-03-30T02:20:55;7.10;;;2.57;;
14040;SDS011;7095;51.388;6.196;2023-03-30T02:23:26;6.40;;;2.20;;
14040;SDS011;7095;51.388;6.196;2023-03-30T02:26:01;3.70;;;2.40;;
14040;SDS011;7095;51.388;6.196;2023-03-30T02:28:30;6.57;;;2.83;;
14040;SDS011;7095;51.388;6.196;2023-03-30T02:30:59;10.27;;;3.17;;
14040;SDS011;7095;51.388;6.196;2023-03-30T02:33:31;5.10;;;2.10;;
14040;SDS011;7095;51.388;6.196;2023-03-30T02:36:12;10.43;;;2.13;;
14040;SDS011;7095;51.388;6.196;2023-03-30T02:39:01;7.63;;;2.27;;
14040;SDS011;7095;51.388;6.196;2023-03-30T02:41:55;10.23;;;2.20;;
14040;SDS011;7095;51.388;6.196;2023-03-30T02:44:35;6.23;;;2.90;;
14040;SDS011;7095;51.388;6.196;2023-03-30T02:47:11;9.90;;;3.00;;
14040;SDS011;7095;51.388;6.196;2023-03-30T02:49:49;10.17;;;2.50;;
14040;SDS011;7095;51.388;6.196;2023-03-30T02:52:27;7.00;;;2.13;;
14040;SDS011;7095;51.388;6.196;2023-03-30T02:55:09;5.33;;;2.23;;
14040;SDS011;7095;51.388;6.196;2023-03-30T02:58:03;4.63;;;2.27;;
14040;SDS011;7095;51.388;6.196;2023-03-30T03:00:54;10.67;;;2.20;;
14040;SDS011;7095;51.388;6.196;2023-03-30T03:03:42;7.80;;;2.70;;
14040;SDS011;7095;51.388;6.196;2023-03-30T03:06:14;9.33;;;2.80;;
14040;SDS011;7095;51.388;6.196;2023-03-30T03:08:47;4.87;;;2.10;;
14040;SDS011;7095;51.388;6.196;2023-03-30T03:11:22;7.43;;;2.73;;
14040;SDS011;7095;51.388;6.196;2023-03-30T03:13:55;11.77;;;2.30;;
14040;SDS011;7095;51.388;6.196;2023-03-30T03:16:24;5.87;;;2.30;;
14040;SDS011;7095;51.388;6.196;2023-03-30T03:19:13;4.97;;;2.10;;
14040;SDS011;7095;51.388;6.196;2023-03-30T03:21:44;9.63;;;2.47;;
14040;SDS011;7095;51.388;6.196;2023-03-30T03:24:13;5.63;;;1.83;;
14040;SDS011;7095;51.388;6.196;2023-03-30T03:27:01;5.63;;;2.20;;
14040;SDS011;7095;51.388;6.196;2023-03-30T03:29:40;5.53;;;2.67;;
14040;SDS011;7095;51.388;6.196;2023-03-30T03:32:09;7.60;;;2.40;;
14040;SDS011;7095;51.388;6.196;2023-03-30T03:34:42;7.53;;;2.40;;
14040;SDS011;7095;51.388;6.196;2023-03-30T03:37:12;8.10;;;2.53;;
14040;SDS011;7095;51.388;6.196;2023-03-30T03:39:43;6.03;;;2.30;;
14040;SDS011;7095;51.388;6.196;2023-03-30T03:42:14;8.30;;;2.00;;
14040;SDS011;7095;51.388;6.196;2023-03-30T03:44:53;7.40;;;2.17;;
14040;SDS011;7095;51.388;6.196;2023-03-30T03:47:22;10.07;;;2.20;;
14040;SDS011;7095;51.388;6.196;2023-03-30T03:49:53;5.90;;;2.10;;
14040;SDS011;7095;51.388;6.196;2023-03-30T03:52:22;12.97;;;2.40;;
14040;SDS011;7095;51.388;6.196;2023-03-30T03:54:50;10.90;;;2.63;;
14040;SDS011;7095;51.388;6.196;2023-03-30T03:57:19;4.23;;;2.43;;
14040;SDS011;7095;51.388;6.196;2023-03-30T03:59:49;6.77;;;2.30;;
14040;SDS011;7095;51.388;6.196;2023-03-30T04:02:20;9.30;;;2.80;;
14040;SDS011;7095;51.388;6.196;2023-03-30T04:04:51;5.20;;;2.07;;
14040;SDS011;7095;51.388;6.196;2023-03-30T04:07:20;8.93;;;2.10;;
14040;SDS011;7095;51.388;6.196;2023-03-30T04:09:51;6.27;;;2.07;;
14040;SDS011;7095;51.388;6.196;2023-03-30T04:12:37;5.23;;;1.83;;
14040;SDS011;7095;51.388;6.196;2023-03-30T04:15:38;11.60;;;2.87;;
14040;SDS011;7095;51.388;6.196;2023-03-30T04:18:26;5.17;;;1.97;;
14040;SDS011;7095;51.388;6.196;2023-03-30T04:21:06;7.17;;;2.20;;
14040;SDS011;7095;51.388;6.196;2023-03-30T04:24:02;7.30;;;2.17;;
14040;SDS011;7095;51.388;6.196;2023-03-30T04:26:39;8.00;;;2.10;;
14040;SDS011;7095;51.388;6.196;2023-03-30T04:29:37;5.20;;;2.20;;
14040;SDS011;7095;51.388;6.196;2023-03-30T04:32:32;7.67;;;2.43;;
14040;SDS011;7095;51.388;6.196;2023-03-30T04:35:17;4.53;;;2.47;;
14040;SDS011;7095;51.388;6.196;2023-03-30T04:38:07;12.77;;;1.93;;
14040;SDS011;7095;51.388;6.196;2023-03-30T04:41:01;9.23;;;2.53;;
14040;SDS011;7095;51.388;6.196;2023-03-30T04:43:50;4.60;;;2.07;;
14040;SDS011;7095;51.388;6.196;2023-03-30T04:46:31;6.23;;;2.20;;
14040;SDS011;7095;51.388;6.196;2023-03-30T04:49:22;5.67;;;2.50;;
14040;SDS011;7095;51.388;6.196;2023-03-30T04:52:24;3.90;;;1.93;;
14040;SDS011;7095;51.388;6.196;2023-03-30T04:55:13;8.43;;;2.10;;
14040;SDS011;7095;51.388;6.196;2023-03-30T04:58:10;7.53;;;2.40;;
14040;SDS011;7095;51.388;6.196;2023-03-30T05:00:59;4.80;;;1.90;;
14040;SDS011;7095;51.388;6.196;2023-03-30T05:03:47;8.33;;;1.90;;
14040;SDS011;7095;51.388;6.196;2023-03-30T05:06:39;6.80;;;2.17;;
14040;SDS011;7095;51.388;6.196;2023-03-30T05:09:24;8.23;;;2.17;;
14040;SDS011;7095;51.388;6.196;2023-03-30T05:12:02;6.70;;;2.00;;
14040;SDS011;7095;51.388;6.196;2023-03-30T05:14:53;7.40;;;2.13;;
14040;SDS011;7095;51.388;6.196;2023-03-30T05:17:34;10.10;;;2.63;;
14040;SDS011;7095;51.388;6.196;2023-03-30T05:20:27;5.23;;;2.03;;
14040;SDS011;7095;51.388;6.196;2023-03-30T05:23:14;10.50;;;2.33;;
14040;SDS011;7095;51.388;6.196;2023-03-30T05:26:20;6.73;;;2.10;;
14040;SDS011;7095;51.388;6.196;2023-03-30T05:29:21;6.40;;;2.27;;
14040;SDS011;7095;51.388;6.196;2023-03-30T05:31:55;10.23;;;2.13;;
14040;SDS011;7095;51.388;6.196;2023-03-30T05:34:39;8.00;;;2.50;;
14040;SDS011;7095;51.388;6.196;2023-03-30T05:37:18;9.93;;;2.53;;
14040;SDS011;7095;51.388;6.196;2023-03-30T05:40:10;3.97;;;2.07;;
14040;SDS011;7095;51.388;6.196;2023-03-30T05:42:50;8.07;;;2.27;;
14040;SDS011;7095;51.388;6.196;2023-03-30T05:45:36;5.60;;;1.57;;
14040;SDS011;7095;51.388;6.196;2023-03-30T05:48:23;5.00;;;1.73;;
14040;SDS011;7095;51.388;6.196;2023-03-30T05:51:17;4.43;;;1.60;;
14040;SDS011;7095;51.388;6.196;2023-03-30T05:54:04;7.53;;;2.10;;
14040;SDS011;7095;51.388;6.196;2023-03-30T05:56:52;8.03;;;2.17;;
14040;SDS011;7095;51.388;6.196;2023-03-30T05:59:32;9.10;;;2.03;;
14040;SDS011;7095;51.388;6.196;2023-03-30T06:02:06;4.03;;;1.83;;
14040;SDS011;7095;51.388;6.196;2023-03-30T06:04:37;5.73;;;2.20;;
14040;SDS011;7095;51.388;6.196;2023-03-30T06:07:05;8.07;;;2.37;;
14040;SDS011;7095;51.388;6.196;2023-03-30T06:09:34;7.00;;;2.20;;
14040;SDS011;7095;51.388;6.196;2023-03-30T06:12:12;3.43;;;1.60;;
14040;SDS011;7095;51.388;6.196;2023-03-30T06:14:42;4.97;;;1.90;;
14040;SDS011;7095;51.388;6.196;2023-03-30T06:17:29;6.27;;;2.37;;
14040;SDS011;7095;51.388;6.196;2023-03-30T06:19:58;6.03;;;2.10;;
14040;SDS011;7095;51.388;6.196;2023-03-30T06:22:27;8.17;;;2.37;;
14040;SDS011;7095;51.388;6.196;2023-03-30T06:25:09;5.63;;;1.73;;
14040;SDS011;7095;51.388;6.196;2023-03-30T06:27:40;6.07;;;2.60;;
14040;SDS011;7095;51.388;6.196;2023-03-30T06:30:12;4.77;;;2.23;;
14040;SDS011;7095;51.388;6.196;2023-03-30T06:32:45;4.17;;;1.63;;
14040;SDS011;7095;51.388;6.196;2023-03-30T06:35:44;6.67;;;1.87;;
14040;SDS011;7095;51.388;6.196;2023-03-30T06:38:16;6.13;;;2.10;;
14040;SDS011;7095;51.388;6.196;2023-03-30T06:40:46;6.50;;;1.73;;
14040;SDS011;7095;51.388;6.196;2023-03-30T06:43:19;7.37;;;2.17;;
14040;SDS011;7095;51.388;6.196;2023-03-30T06:46:14;9.90;;;2.03;;
14040;SDS011;7095;51.388;6.196;2023-03-30T06:48:45;8.20;;;2.00;;
14040;SDS011;7095;51.388;6.196;2023-03-30T06:51:46;7.90;;;1.70;;
14040;SDS011;7095;51.388;6.196;2023-03-30T06:54:15;8.17;;;2.10;;
14040;SDS011;7095;51.388;6.196;2023-03-30T06:56:54;5.03;;;1.70;;
14040;SDS011;7095;51.388;6.196;2023-03-30T06:59:23;5.50;;;2.00;;
14040;SDS011;7095;51.388;6.196;2023-03-30T07:02:19;10.97;;;2.50;;
14040;SDS011;7095;51.388;6.196;2023-03-30T07:05:06;4.67;;;2.60;;
14040;SDS011;7095;51.388;6.196;2023-03-30T07:07:56;5.00;;;2.03;;
14040;SDS011;7095;51.388;6.196;2023-03-30T07:10:24;4.33;;;1.97;;
14040;SDS011;7095;51.388;6.196;2023-03-30T07:12:55;5.50;;;1.73;;
14040;SDS011;7095;51.388;6.196;2023-03-30T07:15:24;4.07;;;1.87;;
14040;SDS011;7095;51.388;6.196;2023-03-30T07:17:53;5.33;;;1.87;;
14040;SDS011;7095;51.388;6.196;2023-03-30T07:20:22;6.67;;;2.00;;
14040;SDS011;7095;51.388;6.196;2023-03-30T07:23:14;6.53;;;2.53;;
14040;SDS011;7095;51.388;6.196;2023-03-30T07:25:44;6.63;;;2.20;;
14040;SDS011;7095;51.388;6.196;2023-03-30T07:28:25;12.00;;;2.70;;
14040;SDS011;7095;51.388;6.196;2023-03-30T07:30:53;6.23;;;2.10;;
14040;SDS011;7095;51.388;6.196;2023-03-30T07:33:23;7.87;;;2.30;;
14040;SDS011;7095;51.388;6.196;2023-03-30T07:35:56;8.03;;;2.47;;
14040;SDS011;7095;51.388;6.196;2023-03-30T07:38:25;9.33;;;3.03;;
14040;SDS011;7095;51.388;6.196;2023-03-30T07:40:54;5.53;;;2.33;;
14040;SDS011;7095;51.388;6.196;2023-03-30T07:43:23;8.53;;;2.23;;
14040;SDS011;7095;51.388;6.196;2023-03-30T07:45:55;7.30;;;2.33;;
14040;SDS011;7095;51.388;6.196;2023-03-30T07:48:38;8.17;;;3.07;;
14040;SDS011;7095;51.388;6.196;2023-03-30T07:51:08;9.90;;;3.00;;
14040;SDS011;7095;51.388;6.196;2023-03-30T07:53:47;5.77;;;2.43;;
14040;SDS011;7095;51.388;6.196;2023-03-30T07:56:22;14.60;;;2.97;;
14040;SDS011;7095;51.388;6.196;2023-03-30T07:58:53;8.67;;;3.03;;
14040;SDS011;7095;51.388;6.196;2023-03-30T08:01:28;11.70;;;2.50;;
14040;SDS011;7095;51.388;6.196;2023-03-30T08:04:18;8.30;;;2.73;;
14040;SDS011;7095;51.388;6.196;2023-03-30T08:06:53;6.83;;;2.27;;
14040;SDS011;7095;51.388;6.196;2023-03-30T08:09:22;9.20;;;2.33;;
14040;SDS011;7095;51.388;6.196;2023-03-30T08:11:51;12.77;;;3.20;;
14040;SDS011;7095;51.388;6.196;2023-03-30T08:14:19;13.57;;;2.70;;
14040;SDS011;7095;51.388;6.196;2023-03-30T08:16:49;14.20;;;2.80;;
14040;SDS011;7095;51.388;6.196;2023-03-30T08:19:19;4.80;;;1.83;;
14040;SDS011;7095;51.388;6.196;2023-03-30T08:21:47;9.40;;;2.27;;
14040;SDS011;7095;51.388;6.196;2023-03-30T08:24:16;12.60;;;3.23;;
14040;SDS011;7095;51.388;6.196;2023-03-30T08:26:44;11.50;;;2.67;;
14040;SDS011;7095;51.388;6.196;2023-03-30T08:29:13;10.67;;;2.70;;
14040;SDS011;7095;51.388;6.196;2023-03-30T08:31:42;9.03;;;2.67;;
14040;SDS011;7095;51.388;6.196;2023-03-30T08:34:11;7.70;;;2.57;;
14040;SDS011;7095;51.388;6.196;2023-03-30T08:36:41;9.93;;;2.47;;
14040;SDS011;7095;51.388;6.196;2023-03-30T08:39:10;11.80;;;3.43;;
14040;SDS011;7095;51.388;6.196;2023-03-30T08:41:42;9.63;;;2.57;;
14040;SDS011;7095;51.388;6.196;2023-03-30T08:44:29;9.47;;;2.57;;
14040;SDS011;7095;51.388;6.196;2023-03-30T08:47:02;7.77;;;2.27;;
14040;SDS011;7095;51.388;6.196;2023-03-30T08:49:34;10.90;;;2.70;;
14040;SDS011;7095;51.388;6.196;2023-03-30T08:52:11;12.07;;;3.67;;
14040;SDS011;7095;51.388;6.196;2023-03-30T08:54:47;11.03;;;2.60;;
14040;SDS011;7095;51.388;6.196;2023-03-30T08:57:21;8.10;;;1.90;;
14040;SDS011;7095;51.388;6.196;2023-03-30T09:00:05;13.97;;;3.50;;
14040;SDS011;7095;51.388;6.196;2023-03-30T09:02:46;7.87;;;2.50;;
14040;SDS011;7095;51.388;6.196;2023-03-30T09:05:19;12.57;;;3.00;;
14040;SDS011;7095;51.388;6.196;2023-03-30T09:07:56;14.60;;;3.10;;
14040;SDS011;7095;51.388;6.196;2023-03-30T09:10:30;13.77;;;3.47;;
14040;SDS011;7095;51.388;6.196;2023-03-30T09:13:06;12.17;;;2.80;;
14040;SDS011;7095;51.388;6.196;2023-03-30T09:15:40;7.07;;;2.40;;
14040;SDS011;7095;51.388;6.196;2023-03-30T09:18:14;9.60;;;3.20;;
14040;SDS011;7095;51.388;6.196;2023-03-30T09:20:47;9.83;;;2.80;;
14040;SDS011;7095;51.388;6.196;2023-03-30T09:23:20;11.93;;;3.27;;
14040;SDS011;7095;51.388;6.196;2023-03-30T09:25:53;15.53;;;2.93;;
14040;SDS011;7095;51.388;6.196;2023-03-30T09:28:31;10.93;;;2.90;;
14040;SDS011;7095;51.388;6.196;2023-03-30T09:31:01;14.70;;;3.20;;
14040;SDS011;7095;51.388;6.196;2023-03-30T09:33:37;10.80;;;2.60;;
14040;SDS011;7095;51.388;6.196;2023-03-30T09:36:12;10.63;;;3.20;;
14040;SDS011;7095;51.388;6.196;2023-03-30T09:38:44;12.20;;;2.83;;
14040;SDS011;7095;51.388;6.196;2023-03-30T09:41:21;7.50;;;2.23;;
14040;SDS011;7095;51.388;6.196;2023-03-30T09:43:58;13.43;;;2.60;;
14040;SDS011;7095;51.388;6.196;2023-03-30T09:46:28;14.27;;;2.83;;
14040;SDS011;7095;51.388;6.196;2023-03-30T09:49:10;16.13;;;2.70;;
14040;SDS011;7095;51.388;6.196;2023-03-30T09:54:37;10.63;;;2.90;;
14040;SDS011;7095;51.388;6.196;2023-03-30T09:57:20;13.67;;;3.03;;
14040;SDS011;7095;51.388;6.196;2023-03-30T09:59:51;14.43;;;3.03;;
14040;SDS011;7095;51.388;6.196;2023-03-30T10:02:22;13.50;;;3.17;;
14040;SDS011;7095;51.388;6.196;2023-03-30T10:04:54;10.03;;;2.70;;
14040;SDS011;7095;51.388;6.196;2023-03-30T10:07:31;12.23;;;3.90;;
14040;SDS011;7095;51.388;6.196;2023-03-30T10:10:13;12.60;;;3.10;;
14040;SDS011;7095;51.388;6.196;2023-03-30T10:12:43;12.20;;;3.30;;
14040;SDS011;7095;51.388;6.196;2023-03-30T10:15:15;17.83;;;3.80;;
14040;SDS011;7095;51.388;6.196;2023-03-30T10:17:46;14.27;;;2.90;;
14040;SDS011;7095;51.388;6.196;2023-03-30T10:20:22;11.80;;;3.10;;
14040;SDS011;7095;51.388;6.196;2023-03-30T10:22:54;19.33;;;4.03;;
14040;SDS011;7095;51.388;6.196;2023-03-30T10:25:25;12.77;;;2.97;;
14040;SDS011;7095;51.388;6.196;2023-03-30T10:27:59;11.37;;;2.90;;
14040;SDS011;7095;51.388;6.196;2023-03-30T10:30:30;16.60;;;3.60;;
14040;SDS011;7095;51.388;6.196;2023-03-30T10:33:00;19.23;;;3.53;;
14040;SDS011;7095;51.388;6.196;2023-03-30T10:35:31;14.87;;;3.03;;
14040;SDS011;7095;51.388;6.196;2023-03-30T10:38:03;16.40;;;4.23;;
14040;SDS011;7095;51.388;6.196;2023-03-30T10:40:36;13.00;;;3.03;;
14040;SDS011;7095;51.388;6.196;2023-03-30T10:43:10;13.97;;;3.60;;
14040;SDS011;7095;51.388;6.196;2023-03-30T10:45:43;18.30;;;3.20;;
14040;SDS011;7095;51.388;6.196;2023-03-30T10:51:06;14.20;;;4.23;;
14040;SDS011;7095;51.388;6.196;2023-03-30T10:53:42;16.13;;;3.67;;
14040;SDS011;7095;51.388;6.196;2023-03-30T10:56:24;20.23;;;3.90;;
14040;SDS011;7095;51.388;6.196;2023-03-30T10:59:16;16.30;;;3.73;;
14040;SDS011;7095;51.388;6.196;2023-03-30T11:02:12;14.37;;;3.40;;
14040;SDS011;7095;51.388;6.196;2023-03-30T11:04:54;15.20;;;3.57;;
14040;SDS011;7095;51.388;6.196;2023-03-30T11:07:31;15.17;;;3.20;;
14040;SDS011;7095;51.388;6.196;2023-03-30T11:10:03;15.37;;;3.47;;
14040;SDS011;7095;51.388;6.196;2023-03-30T11:12:38;10.13;;;3.43;;
14040;SDS011;7095;51.388;6.196;2023-03-30T11:15:11;13.00;;;3.43;;
14040;SDS011;7095;51.388;6.196;2023-03-30T11:17:47;12.77;;;3.07;;
14040;SDS011;7095;51.388;6.196;2023-03-30T11:20:23;12.67;;;2.97;;
14040;SDS011;7095;51.388;6.196;2023-03-30T11:22:55;14.40;;;3.30;;
14040;SDS011;7095;51.388;6.196;2023-03-30T11:25:29;20.53;;;3.10;;
14040;SDS011;7095;51.388;6.196;2023-03-30T11:28:05;19.17;;;3.70;;
14040;SDS011;7095;51.388;6.196;2023-03-30T11:30:42;9.67;;;2.70;;
14040;SDS011;7095;51.388;6.196;2023-03-30T11:33:15;10.37;;;3.50;;
14040;SDS011;7095;51.388;6.196;2023-03-30T11:35:49;12.43;;;3.07;;
14040;SDS011;7095;51.388;6.196;2023-03-30T11:38:23;18.80;;;3.40;;
14040;SDS011;7095;51.388;6.196;2023-03-30T11:40:56;11.37;;;3.43;;
14040;SDS011;7095;51.388;6.196;2023-03-30T11:43:29;12.40;;;3.40;;
14040;SDS011;7095;51.388;6.196;2023-03-30T11:46:00;11.90;;;3.00;;
14040;SDS011;7095;51.388;6.196;2023-03-30T11:51:52;16.07;;;3.33;;
14040;SDS011;7095;51.388;6.196;2023-03-30T11:54:36;15.80;;;3.37;;
14040;SDS011;7095;51.388;6.196;2023-03-30T11:57:32;18.37;;;3.97;;
14040;SDS011;7095;51.388;6.196;2023-03-30T12:00:16;10.57;;;3.73;;
14040;SDS011;7095;51.388;6.196;2023-03-30T12:02:58;12.57;;;3.30;;
14040;SDS011;7095;51.388;6.196;2023-03-30T12:05:36;13.63;;;3.60;;
14040;SDS011;7095;51.388;6.196;2023-03-30T12:08:11;14.47;;;3.37;;
14040;SDS011;7095;51.388;6.196;2023-03-30T12:10:59;16.43;;;3.30;;
14040;SDS011;7095;51.388;6.196;2023-03-30T12:13:33;12.47;;;3.13;;
14040;SDS011;7095;51.388;6.196;2023-03-30T12:16:18;14.83;;;4.00;;
14040;SDS011;7095;51.388;6.196;2023-03-30T12:18:56;13.57;;;2.83;;
14040;SDS011;7095;51.388;6.196;2023-03-30T12:21:32;9.03;;;2.13;;
14040;SDS011;7095;51.388;6.196;2023-03-30T12:24:08;7.60;;;2.00;;
14040;SDS011;7095;51.388;6.196;2023-03-30T12:26:42;9.20;;;1.80;;
14040;SDS011;7095;51.388;6.196;2023-03-30T12:29:42;9.80;;;2.83;;
14040;SDS011;7095;51.388;6.196;2023-03-30T12:32:29;11.43;;;2.73;;
14040;SDS011;7095;51.388;6.196;2023-03-30T12:35:06;11.07;;;2.67;;
14040;SDS011;7095;51.388;6.196;2023-03-30T12:38:13;9.33;;;2.30;;
14040;SDS011;7095;51.388;6.196;2023-03-30T12:40:51;7.67;;;2.17;;
14040;SDS011;7095;51.388;6.196;2023-03-30T12:43:30;6.33;;;1.90;;
14040;SDS011;7095;51.388;6.196;2023-03-30T12:46:09;6.50;;;2.30;;
14040;SDS011;7095;51.388;6.196;2023-03-30T12:48:49;5.40;;;1.80;;
14040;SDS011;7095;51.388;6.196;2023-03-30T12:51:36;10.23;;;2.00;;
14040;SDS011;7095;51.388;6.196;2023-03-30T12:57:36;10.37;;;2.20;;
14040;SDS011;7095;51.388;6.196;2023-03-30T13:00:25;8.47;;;2.30;;
14040;SDS011;7095;51.388;6.196;2023-03-30T13:03:29;9.23;;;2.53;;
14040;SDS011;7095;51.388;6.196;2023-03-30T13:06:17;8.97;;;2.57;;
14040;SDS011;7095;51.388;6.196;2023-03-30T13:08:55;10.97;;;3.00;;
14040;SDS011;7095;51.388;6.196;2023-03-30T13:11:41;9.20;;;2.50;;
14040;SDS011;7095;51.388;6.196;2023-03-30T13:14:15;8.00;;;2.90;;
14040;SDS011;7095;51.388;6.196;2023-03-30T13:19:42;10.60;;;3.00;;
14040;SDS011;7095;51.388;6.196;2023-03-30T13:22:23;13.47;;;2.73;;
14040;SDS011;7095;51.388;6.196;2023-03-30T13:24:57;17.50;;;3.70;;
14040;SDS011;7095;51.388;6.196;2023-03-30T13:27:28;11.57;;;3.07;;
14040;SDS011;7095;51.388;6.196;2023-03-30T13:30:00;12.93;;;3.30;;
14040;SDS011;7095;51.388;6.196;2023-03-30T13:32:50;10.33;;;3.13;;
14040;SDS011;7095;51.388;6.196;2023-03-30T13:35:32;14.37;;;3.73;;
14040;SDS011;7095;51.388;6.196;2023-03-30T13:41:11;8.70;;;2.83;;
14040;SDS011;7095;51.388;6.196;2023-03-30T13:43:51;10.50;;;2.73;;
14040;SDS011;7095;51.388;6.196;2023-03-30T13:46:30;10.80;;;3.27;;
14040;SDS011;7095;51.388;6.196;2023-03-30T13:49:09;12.87;;;3.47;;
14040;SDS011;7095;51.388;6.196;2023-03-30T13:51:46;11.47;;;2.70;;
14040;SDS011;7095;51.388;6.196;2023-03-30T13:54:17;9.87;;;3.20;;
14040;SDS011;7095;51.388;6.196;2023-03-30T13:56:51;16.47;;;3.17;;
14040;SDS011;7095;51.388;6.196;2023-03-30T13:59:26;14.40;;;3.57;;
14040;SDS011;7095;51.388;6.196;2023-03-30T14:01:59;11.23;;;3.20;;
14040;SDS011;7095;51.388;6.196;2023-03-30T14:04:29;16.33;;;3.90;;
14040;SDS011;7095;51.388;6.196;2023-03-30T14:07:03;13.97;;;3.37;;
14040;SDS011;7095;51.388;6.196;2023-03-30T14:09:33;10.40;;;3.03;;
14040;SDS011;7095;51.388;6.196;2023-03-30T14:12:02;9.93;;;2.97;;
14040;SDS011;7095;51.388;6.196;2023-03-30T14:14:34;7.70;;;3.20;;
14040;SDS011;7095;51.388;6.196;2023-03-30T14:17:11;10.87;;;3.07;;
14040;SDS011;7095;51.388;6.196;2023-03-30T14:19:44;7.90;;;2.80;;
14040;SDS011;7095;51.388;6.196;2023-03-30T14:22:23;11.80;;;3.23;;
14040;SDS011;7095;51.388;6.196;2023-03-30T14:24:56;13.87;;;3.40;;
14040;SDS011;7095;51.388;6.196;2023-03-30T14:27:30;12.60;;;3.40;;
14040;SDS011;7095;51.388;6.196;2023-03-30T14:30:00;15.77;;;3.67;;
14040;SDS011;7095;51.388;6.196;2023-03-30T14:32:30;13.17;;;2.97;;
14040;SDS011;7095;51.388;6.196;2023-03-30T14:35:03;11.73;;;3.03;;
14040;SDS011;7095;51.388;6.196;2023-03-30T14:37:34;9.53;;;3.10;;
14040;SDS011;7095;51.388;6.196;2023-03-30T14:40:08;11.17;;;3.10;;
14040;SDS011;7095;51.388;6.196;2023-03-30T14:42:41;10.80;;;2.83;;
14040;SDS011;7095;51.388;6.196;2023-03-30T14:45:14;13.60;;;3.50;;
14040;SDS011;7095;51.388;6.196;2023-03-30T14:47:44;15.03;;;3.23;;
14040;SDS011;7095;51.388;6.196;2023-03-30T14:50:14;15.90;;;3.13;;
14040;SDS011;7095;51.388;6.196;2023-03-30T14:52:44;17.27;;;4.03;;
14040;SDS011;7095;51.388;6.196;2023-03-30T14:55:17;13.63;;;3.00;;
14040;SDS011;7095;51.388;6.196;2023-03-30T14:57:49;10.70;;;2.63;;
14040;SDS011;7095;51.388;6.196;2023-03-30T15:00:19;11.40;;;2.73;;
14040;SDS011;7095;51.388;6.196;2023-03-30T15:02:51;8.13;;;2.30;;
14040;SDS011;7095;51.388;6.196;2023-03-30T15:05:23;9.40;;;2.20;;
14040;SDS011;7095;51.388;6.196;2023-03-30T15:07:55;12.10;;;2.40;;
14040;SDS011;7095;51.388;6.196;2023-03-30T15:10:26;11.07;;;2.47;;
14040;SDS011;7095;51.388;6.196;2023-03-30T15:12:59;12.57;;;3.67;;
14040;SDS011;7095;51.388;6.196;2023-03-30T15:15:30;10.93;;;3.63;;
14040;SDS011;7095;51.388;6.196;2023-03-30T15:18:00;18.43;;;3.50;;
14040;SDS011;7095;51.388;6.196;2023-03-30T15:20:30;15.83;;;2.57;;
14040;SDS011;7095;51.388;6.196;2023-03-30T15:22:59;12.63;;;2.40;;
14040;SDS011;7095;51.388;6.196;2023-03-30T15:25:30;14.63;;;2.93;;
14040;SDS011;7095;51.388;6.196;2023-03-30T15:28:02;13.87;;;2.93;;
14040;SDS011;7095;51.388;6.196;2023-03-30T15:30:33;11.10;;;2.83;;
14040;SDS011;7095;51.388;6.196;2023-03-30T15:33:04;12.50;;;2.70;;
14040;SDS011;7095;51.388;6.196;2023-03-30T15:35:34;10.07;;;2.87;;
14040;SDS011;7095;51.388;6.196;2023-03-30T15:38:11;5.53;;;2.43;;
14040;SDS011;7095;51.388;6.196;2023-03-30T15:40:46;10.23;;;2.50;;
14040;SDS011;7095;51.388;6.196;2023-03-30T15:43:17;10.57;;;2.30;;
14040;SDS011;7095;51.388;6.196;2023-03-30T15:45:48;14.87;;;2.93;;
14040;SDS011;7095;51.388;6.196;2023-03-30T15:48:20;10.50;;;2.70;;
14040;SDS011;7095;51.388;6.196;2023-03-30T15:50:54;10.60;;;3.57;;
14040;SDS011;7095;51.388;6.196;2023-03-30T15:53:30;11.60;;;2.60;;
14040;SDS011;7095;51.388;6.196;2023-03-30T15:56:04;9.30;;;2.07;;
14040;SDS011;7095;51.388;6.196;2023-03-30T15:58:39;8.30;;;2.57;;
14040;SDS011;7095;51.388;6.196;2023-03-30T16:01:10;11.53;;;3.23;;
14040;SDS011;7095;51.388;6.196;2023-03-30T16:03:47;14.77;;;3.30;;
14040;SDS011;7095;51.388;6.196;2023-03-30T16:06:18;10.90;;;2.93;;
14040;SDS011;7095;51.388;6.196;2023-03-30T16:08:47;13.87;;;3.13;;
14040;SDS011;7095;51.388;6.196;2023-03-30T16:11:17;19.00;;;3.50;;
14040;SDS011;7095;51.388;6.196;2023-03-30T16:13:46;10.03;;;2.53;;
14040;SDS011;7095;51.388;6.196;2023-03-30T16:16:19;15.77;;;2.67;;